sensor_id;sensor_type;location;lat;lon;timestamp;temperature;humidity
28520;DHT22;15732;48.534;20.382;2023-03-03T00:01:24;1.50;99.90
28520;DHT22;15732;48.534;20.382;2023-03-03T00:03:52;1.50;99.90
28520;DHT22;15732;48.534;20.382;2023-03-03T00:06:20;1.50;99.90
28520;DHT22;15732;48.534;20.382;2023-03-03T00:08:52;1.50;99.90
28520;DHT22;15732;48.534;20.382;2023-03-03T00:11:23;1.50;99.90
28520;DHT22;15732;48.534;20.382;2023-03-03T00:13:56;1.50;99.90
28520;DHT22;15732;48.534;20.382;2023-03-03T00:16:37;1.60;99.90
28520;DHT22;15732;48.534;20.382;2023-03-03T00:19:17;1.50;99.90
28520;DHT22;15732;48.534;20.382;2023-03-03T00:21:45;1.30;99.90
28520;DHT22;15732;48.534;20.382;2023-03-03T00:26:41;1.30;99.90
28520;DHT22;15732;48.534;20.382;2023-03-03T00:29:35;1.30;99.90
28520;DHT22;15732;48.534;20.382;2023-03-03T00:32:18;1.30;99.90
28520;DHT22;15732;48.534;20.382;2023-03-03T00:34:51;1.30;99.90
28520;DHT22;15732;48.534;20.382;2023-03-03T00:37:48;1.40;99.90
28520;DHT22;15732;48.534;20.382;2023-03-03T00:40:34;1.40;99.90
28520;DHT22;15732;48.534;20.382;2023-03-03T00:43:34;1.40;99.90
28520;DHT22;15732;48.534;20.382;2023-03-03T00:46:02;1.20;99.90
28520;DHT22;15732;48.534;20.382;2023-03-03T00:51:31;1.40;99.90
28520;DHT22;15732;48.534;20.382;2023-03-03T00:53:58;1.30;99.90
28520;DHT22;15732;48.534;20.382;2023-03-03T00:56:25;1.30;99.90
28520;DHT22;15732;48.534;20.382;2023-03-03T00:58:57;1.30;99.90
28520;DHT22;15732;48.534;20.382;2023-03-03T01:01:24;1.10;99.90
28520;DHT22;15732;48.534;20.382;2023-03-03T01:03:52;1.20;99.90
28520;DHT22;15732;48.534;20.382;2023-03-03T01:06:23;1.20;99.90
28520;DHT22;15732;48.534;20.382;2023-03-03T01:08:51;1.10;99.90
28520;DHT22;15732;48.534;20.382;2023-03-03T01:11:23;1.00;99.90
28520;DHT22;15732;48.534;20.382;2023-03-03T01:13:51;1.20;99.90
28520;DHT22;15732;48.534;20.382;2023-03-03T01:16:23;1.20;99.90
28520;DHT22;15732;48.534;20.382;2023-03-03T01:18:54;1.20;99.90
28520;DHT22;15732;48.534;20.382;2023-03-03T01:21:25;1.20;99.90
28520;DHT22;15732;48.534;20.382;2023-03-03T01:23:53;1.00;99.90
28520;DHT22;15732;48.534;20.382;2023-03-03T01:26:20;0.90;99.90
28520;DHT22;15732;48.534;20.382;2023-03-03T01:28:47;1.00;99.90
28520;DHT22;15732;48.534;20.382;2023-03-03T01:31:19;1.00;99.90
28520;DHT22;15732;48.534;20.382;2023-03-03T01:33:46;1.00;99.90
28520;DHT22;15732;48.534;20.382;2023-03-03T01:36:13;0.90;99.90
28520;DHT22;15732;48.534;20.382;2023-03-03T01:38:45;1.00;99.90
28520;DHT22;15732;48.534;20.382;2023-03-03T01:41:16;0.90;99.90
28520;DHT22;15732;48.534;20.382;2023-03-03T01:43:49;1.00;99.90
28520;DHT22;15732;48.534;20.382;2023-03-03T01:46:33;1.10;99.90
28520;DHT22;15732;48.534;20.382;2023-03-03T01:49:12;1.00;99.90
28520;DHT22;15732;48.534;20.382;2023-03-03T01:52:00;1.00;99.90
28520;DHT22;15732;48.534;20.382;2023-03-03T01:54:37;0.90;99.90
28520;DHT22;15732;48.534;20.382;2023-03-03T01:57:17;0.80;99.90
28520;DHT22;15732;48.534;20.382;2023-03-03T01:59:47;0.80;99.90
28520;DHT22;15732;48.534;20.382;2023-03-03T02:02:15;0.70;99.90
28520;DHT22;15732;48.534;20.382;2023-03-03T02:04:43;0.70;99.90
28520;DHT22;15732;48.534;20.382;2023-03-03T02:07:14;0.80;99.90
28520;DHT22;15732;48.534;20.382;2023-03-03T02:10:04;0.70;99.90
28520;DHT22;15732;48.534;20.382;2023-03-03T02:15:30;0.60;99.90
28520;DHT22;15732;48.534;20.382;2023-03-03T02:18:20;0.50;99.90
28520;DHT22;15732;48.534;20.382;2023-03-03T02:28:30;0.30;99.90
28520;DHT22;15732;48.534;20.382;2023-03-03T02:31:00;0.40;99.90
28520;DHT22;15732;48.534;20.382;2023-03-03T02:33:31;0.30;99.90
28520;DHT22;15732;48.534;20.382;2023-03-03T02:35:59;0.30;99.90
28520;DHT22;15732;48.534;20.382;2023-03-03T02:41:01;0.40;99.90
28520;DHT22;15732;48.534;20.382;2023-03-03T02:43:45;0.40;99.90
28520;DHT22;15732;48.534;20.382;2023-03-03T02:46:16;0.40;99.90
28520;DHT22;15732;48.534;20.382;2023-03-03T02:48:47;0.40;99.90
28520;DHT22;15732;48.534;20.382;2023-03-03T02:51:14;0.50;99.90
28520;DHT22;15732;48.534;20.382;2023-03-03T02:53:41;0.40;99.90
28520;DHT22;15732;48.534;20.382;2023-03-03T02:56:08;0.50;99.90
28520;DHT22;15732;48.534;20.382;2023-03-03T02:58:36;0.40;99.90
28520;DHT22;15732;48.534;20.382;2023-03-03T03:01:04;0.50;99.90
28520;DHT22;15732;48.534;20.382;2023-03-03T03:03:34;0.50;99.90
28520;DHT22;15732;48.534;20.382;2023-03-03T03:06:02;0.40;99.90
28520;DHT22;15732;48.534;20.382;2023-03-03T03:08:30;0.40;99.90
28520;DHT22;15732;48.534;20.382;2023-03-03T03:11:01;0.20;99.90
28520;DHT22;15732;48.534;20.382;2023-03-03T03:13:28;0.20;99.90
28520;DHT22;15732;48.534;20.382;2023-03-03T03:16:00;0.20;99.90
28520;DHT22;15732;48.534;20.382;2023-03-03T03:18:30;0.20;99.90
28520;DHT22;15732;48.534;20.382;2023-03-03T03:21:05;0.30;99.90
28520;DHT22;15732;48.534;20.382;2023-03-03T03:23:34;0.40;99.90
28520;DHT22;15732;48.534;20.382;2023-03-03T03:26:01;0.30;99.90
28520;DHT22;15732;48.534;20.382;2023-03-03T03:28:28;0.30;99.90
28520;DHT22;15732;48.534;20.382;2023-03-03T03:31:02;0.40;99.90
28520;DHT22;15732;48.534;20.382;2023-03-03T03:33:29;0.40;99.90
28520;DHT22;15732;48.534;20.382;2023-03-03T03:35:59;0.40;99.90
28520;DHT22;15732;48.534;20.382;2023-03-03T03:38:31;0.40;99.90
28520;DHT22;15732;48.534;20.382;2023-03-03T03:40:58;0.40;99.90
28520;DHT22;15732;48.534;20.382;2023-03-03T03:43:26;0.40;99.90
28520;DHT22;15732;48.534;20.382;2023-03-03T03:45:57;0.30;99.90
28520;DHT22;15732;48.534;20.382;2023-03-03T03:48:24;0.40;99.90
28520;DHT22;15732;48.534;20.382;2023-03-03T03:50:52;0.30;99.90
28520;DHT22;15732;48.534;20.382;2023-03-03T03:53:22;0.30;99.90
28520;DHT22;15732;48.534;20.382;2023-03-03T03:55:50;0.30;99.90
28520;DHT22;15732;48.534;20.382;2023-03-03T03:58:17;0.30;99.90
28520;DHT22;15732;48.534;20.382;2023-03-03T04:00:46;0.20;99.90
28520;DHT22;15732;48.534;20.382;2023-03-03T04:03:14;0.10;99.90
28520;DHT22;15732;48.534;20.382;2023-03-03T04:05:41;0.20;99.90
28520;DHT22;15732;48.534;20.382;2023-03-03T04:08:09;0.10;99.90
28520;DHT22;15732;48.534;20.382;2023-03-03T04:10:36;0.10;99.90
28520;DHT22;15732;48.534;20.382;2023-03-03T04:13:03;-0.10;99.90
28520;DHT22;15732;48.534;20.382;2023-03-03T04:15:30;-0.10;99.90
28520;DHT22;15732;48.534;20.382;2023-03-03T04:17:58;-0.20;99.90
28520;DHT22;15732;48.534;20.382;2023-03-03T04:20:25;-0.10;99.90
28520;DHT22;15732;48.534;20.382;2023-03-03T04:22:56;-0.10;99.90
28520;DHT22;15732;48.534;20.382;2023-03-03T04:25:23;0.00;99.90
28520;DHT22;15732;48.534;20.382;2023-03-03T04:27:50;-0.10;99.90
28520;DHT22;15732;48.534;20.382;2023-03-03T04:30:18;-0.10;99.90
28520;DHT22;15732;48.534;20.382;2023-03-03T04:32:45;-0.20;99.90
28520;DHT22;15732;48.534;20.382;2023-03-03T04:35:13;-0.20;99.90
28520;DHT22;15732;48.534;20.382;2023-03-03T04:37:40;-0.20;99.90
28520;DHT22;15732;48.534;20.382;2023-03-03T04:40:08;-0.30;99.90
28520;DHT22;15732;48.534;20.382;2023-03-03T04:42:36;-0.30;99.90
28520;DHT22;15732;48.534;20.382;2023-03-03T04:45:05;-0.40;99.90
28520;DHT22;15732;48.534;20.382;2023-03-03T04:47:34;-0.40;99.90
28520;DHT22;15732;48.534;20.382;2023-03-03T04:50:06;-0.40;99.90
28520;DHT22;15732;48.534;20.382;2023-03-03T04:52:33;-0.40;99.90
28520;DHT22;15732;48.534;20.382;2023-03-03T04:55:05;-0.40;99.90
28520;DHT22;15732;48.534;20.382;2023-03-03T04:57:33;-0.30;99.90
28520;DHT22;15732;48.534;20.382;2023-03-03T05:00:06;-0.30;99.90
28520;DHT22;15732;48.534;20.382;2023-03-03T05:02:34;-0.20;99.90
28520;DHT22;15732;48.534;20.382;2023-03-03T05:05:07;-0.10;99.90
28520;DHT22;15732;48.534;20.382;2023-03-03T05:07:39;-0.10;99.90
28520;DHT22;15732;48.534;20.382;2023-03-03T05:10:07;-0.10;99.90
28520;DHT22;15732;48.534;20.382;2023-03-03T05:12:35;-0.20;99.90
28520;DHT22;15732;48.534;20.382;2023-03-03T05:15:03;-0.20;99.90
28520;DHT22;15732;48.534;20.382;2023-03-03T05:17:30;-0.20;99.90
28520;DHT22;15732;48.534;20.382;2023-03-03T05:19:57;-0.30;99.90
28520;DHT22;15732;48.534;20.382;2023-03-03T05:22:25;-0.30;99.90
28520;DHT22;15732;48.534;20.382;2023-03-03T05:24:56;-0.20;99.90
28520;DHT22;15732;48.534;20.382;2023-03-03T05:27:24;-0.20;99.90
28520;DHT22;15732;48.534;20.382;2023-03-03T05:29:51;-0.10;99.90
28520;DHT22;15732;48.534;20.382;2023-03-03T05:32:19;-0.10;99.90
28520;DHT22;15732;48.534;20.382;2023-03-03T05:34:46;0.00;99.90
28520;DHT22;15732;48.534;20.382;2023-03-03T05:37:13;0.00;99.90
28520;DHT22;15732;48.534;20.382;2023-03-03T05:39:41;0.10;99.90
28520;DHT22;15732;48.534;20.382;2023-03-03T05:42:11;0.10;99.90
28520;DHT22;15732;48.534;20.382;2023-03-03T05:44:38;-0.10;99.90
28520;DHT22;15732;48.534;20.382;2023-03-03T05:47:05;-0.20;99.90
28520;DHT22;15732;48.534;20.382;2023-03-03T05:49:33;-0.30;99.90
28520;DHT22;15732;48.534;20.382;2023-03-03T05:52:00;-0.30;99.90
28520;DHT22;15732;48.534;20.382;2023-03-03T05:54:31;-0.30;99.90
28520;DHT22;15732;48.534;20.382;2023-03-03T05:56:58;-0.30;99.90
28520;DHT22;15732;48.534;20.382;2023-03-03T05:59:29;-0.40;99.90
28520;DHT22;15732;48.534;20.382;2023-03-03T06:02:00;-0.50;99.90
28520;DHT22;15732;48.534;20.382;2023-03-03T06:04:27;-0.30;99.90
28520;DHT22;15732;48.534;20.382;2023-03-03T06:06:55;-0.30;99.90
28520;DHT22;15732;48.534;20.382;2023-03-03T06:09:27;-0.30;99.90
28520;DHT22;15732;48.534;20.382;2023-03-03T06:11:59;-0.20;99.90
28520;DHT22;15732;48.534;20.382;2023-03-03T06:14:26;-0.20;99.90
28520;DHT22;15732;48.534;20.382;2023-03-03T06:16:54;-0.20;99.90
28520;DHT22;15732;48.534;20.382;2023-03-03T06:19:23;-0.20;99.90
28520;DHT22;15732;48.534;20.382;2023-03-03T06:21:50;-0.20;99.90
28520;DHT22;15732;48.534;20.382;2023-03-03T06:24:17;-0.20;99.90
28520;DHT22;15732;48.534;20.382;2023-03-03T06:26:44;-0.10;99.90
28520;DHT22;15732;48.534;20.382;2023-03-03T06:29:12;-0.10;99.90
28520;DHT22;15732;48.534;20.382;2023-03-03T06:31:39;-0.10;99.90
28520;DHT22;15732;48.534;20.382;2023-03-03T06:34:06;-0.10;99.90
28520;DHT22;15732;48.534;20.382;2023-03-03T06:36:34;0.00;99.90
28520;DHT22;15732;48.534;20.382;2023-03-03T06:39:01;0.00;99.90
28520;DHT22;15732;48.534;20.382;2023-03-03T06:41:32;0.00;99.90
28520;DHT22;15732;48.534;20.382;2023-03-03T06:43:59;0.10;99.90
28520;DHT22;15732;48.534;20.382;2023-03-03T06:46:27;0.10;99.90
28520;DHT22;15732;48.534;20.382;2023-03-03T06:48:54;0.10;99.90
28520;DHT22;15732;48.534;20.382;2023-03-03T06:51:25;0.10;99.90
28520;DHT22;15732;48.534;20.382;2023-03-03T06:57:19;0.20;99.90
28520;DHT22;15732;48.534;20.382;2023-03-03T06:59:51;0.30;99.90
28520;DHT22;15732;48.534;20.382;2023-03-03T07:02:20;0.30;99.90
28520;DHT22;15732;48.534;20.382;2023-03-03T07:04:53;0.30;99.90
28520;DHT22;15732;48.534;20.382;2023-03-03T07:07:24;0.30;99.90
28520;DHT22;15732;48.534;20.382;2023-03-03T07:09:53;0.30;99.90
28520;DHT22;15732;48.534;20.382;2023-03-03T07:12:24;0.40;99.90
28520;DHT22;15732;48.534;20.382;2023-03-03T07:17:47;0.50;99.90
28520;DHT22;15732;48.534;20.382;2023-03-03T07:20:22;0.50;99.90
28520;DHT22;15732;48.534;20.382;2023-03-03T07:22:50;0.60;99.90
28520;DHT22;15732;48.534;20.382;2023-03-03T07:25:34;0.70;99.90
28520;DHT22;15732;48.534;20.382;2023-03-03T07:30:45;1.00;99.90
28520;DHT22;15732;48.534;20.382;2023-03-03T07:33:43;1.10;99.90
28520;DHT22;15732;48.534;20.382;2023-03-03T07:36:29;1.20;99.90
28520;DHT22;15732;48.534;20.382;2023-03-03T07:39:02;1.40;99.90
28520;DHT22;15732;48.534;20.382;2023-03-03T07:41:34;1.50;99.90
28520;DHT22;15732;48.534;20.382;2023-03-03T07:46:43;1.80;99.90
28520;DHT22;15732;48.534;20.382;2023-03-03T07:51:56;2.10;99.90
28520;DHT22;15732;48.534;20.382;2023-03-03T07:54:37;2.20;99.90
28520;DHT22;15732;48.534;20.382;2023-03-03T07:57:29;2.40;99.90
28520;DHT22;15732;48.534;20.382;2023-03-03T08:02:57;2.70;99.90
28520;DHT22;15732;48.534;20.382;2023-03-03T08:05:35;2.90;99.90
28520;DHT22;15732;48.534;20.382;2023-03-03T08:10:36;3.20;99.90
28520;DHT22;15732;48.534;20.382;2023-03-03T08:13:22;3.40;99.90
28520;DHT22;15732;48.534;20.382;2023-03-03T08:16:03;3.60;99.90
28520;DHT22;15732;48.534;20.382;2023-03-03T08:18:46;3.70;99.90
28520;DHT22;15732;48.534;20.382;2023-03-03T08:21:25;4.00;99.90
28520;DHT22;15732;48.534;20.382;2023-03-03T08:24:07;4.10;99.90
28520;DHT22;15732;48.534;20.382;2023-03-03T08:26:38;4.30;99.90
28520;DHT22;15732;48.534;20.382;2023-03-03T08:29:09;4.40;99.90
28520;DHT22;15732;48.534;20.382;2023-03-03T08:31:40;4.60;99.90
28520;DHT22;15732;48.534;20.382;2023-03-03T08:34:07;4.80;99.90
28520;DHT22;15732;48.534;20.382;2023-03-03T08:36:34;5.10;99.90
28520;DHT22;15732;48.534;20.382;2023-03-03T08:39:03;5.30;99.90
28520;DHT22;15732;48.534;20.382;2023-03-03T08:41:30;5.50;99.90
28520;DHT22;15732;48.534;20.382;2023-03-03T08:43:57;5.60;99.90
28520;DHT22;15732;48.534;20.382;2023-03-03T08:46:24;5.70;99.90
28520;DHT22;15732;48.534;20.382;2023-03-03T08:48:52;5.80;99.90
28520;DHT22;15732;48.534;20.382;2023-03-03T08:51:19;5.90;99.90
28520;DHT22;15732;48.534;20.382;2023-03-03T08:53:47;6.00;99.90
28520;DHT22;15732;48.534;20.382;2023-03-03T08:56:14;6.20;99.90
28520;DHT22;15732;48.534;20.382;2023-03-03T08:58:46;6.30;99.90
28520;DHT22;15732;48.534;20.382;2023-03-03T09:01:14;6.40;99.90
28520;DHT22;15732;48.534;20.382;2023-03-03T09:03:45;6.50;99.90
28520;DHT22;15732;48.534;20.382;2023-03-03T09:06:13;6.60;99.90
28520;DHT22;15732;48.534;20.382;2023-03-03T09:08:40;6.70;99.90
28520;DHT22;15732;48.534;20.382;2023-03-03T09:11:23;6.80;99.90
28520;DHT22;15732;48.534;20.382;2023-03-03T09:13:50;7.00;99.90
28520;DHT22;15732;48.534;20.382;2023-03-03T09:16:24;7.10;99.90
28520;DHT22;15732;48.534;20.382;2023-03-03T09:18:51;7.20;99.90
28520;DHT22;15732;48.534;20.382;2023-03-03T09:21:24;7.30;99.90
28520;DHT22;15732;48.534;20.382;2023-03-03T09:23:57;7.40;99.90
28520;DHT22;15732;48.534;20.382;2023-03-03T09:26:28;7.50;99.90
28520;DHT22;15732;48.534;20.382;2023-03-03T09:31:59;7.60;99.90
28520;DHT22;15732;48.534;20.382;2023-03-03T09:34:41;7.70;99.90
28520;DHT22;15732;48.534;20.382;2023-03-03T09:37:28;7.70;99.90
28520;DHT22;15732;48.534;20.382;2023-03-03T09:39:58;7.80;99.90
28520;DHT22;15732;48.534;20.382;2023-03-03T09:45:33;8.00;99.90
28520;DHT22;15732;48.534;20.382;2023-03-03T09:48:25;8.10;99.90
28520;DHT22;15732;48.534;20.382;2023-03-03T09:51:37;8.20;99.90
28520;DHT22;15732;48.534;20.382;2023-03-03T09:57:15;8.30;99.90
28520;DHT22;15732;48.534;20.382;2023-03-03T09:59:46;8.40;99.90
28520;DHT22;15732;48.534;20.382;2023-03-03T10:02:52;8.60;99.90
28520;DHT22;15732;48.534;20.382;2023-03-03T10:05:51;8.70;99.90
28520;DHT22;15732;48.534;20.382;2023-03-03T10:08:31;8.70;99.90
28520;DHT22;15732;48.534;20.382;2023-03-03T10:11:17;8.70;99.90
28520;DHT22;15732;48.534;20.382;2023-03-03T10:19:02;8.90;99.90
28520;DHT22;15732;48.534;20.382;2023-03-03T10:29:23;9.20;99.90
28520;DHT22;15732;48.534;20.382;2023-03-03T10:35:06;9.30;99.90
28520;DHT22;15732;48.534;20.382;2023-03-03T10:40:34;9.50;99.90
28520;DHT22;15732;48.534;20.382;2023-03-03T10:43:29;9.60;99.90
28520;DHT22;15732;48.534;20.382;2023-03-03T10:48:49;9.70;99.90
28520;DHT22;15732;48.534;20.382;2023-03-03T10:51:39;9.70;99.90
28520;DHT22;15732;48.534;20.382;2023-03-03T10:54:38;9.60;99.90
28520;DHT22;15732;48.534;20.382;2023-03-03T10:59:54;9.50;99.90
28520;DHT22;15732;48.534;20.382;2023-03-03T11:02:57;9.50;99.90
28520;DHT22;15732;48.534;20.382;2023-03-03T11:08:08;9.30;99.90
28520;DHT22;15732;48.534;20.382;2023-03-03T11:10:47;9.30;99.90
28520;DHT22;15732;48.534;20.382;2023-03-03T11:16:48;9.20;99.90
28520;DHT22;15732;48.534;20.382;2023-03-03T11:27:51;9.10;99.90
28520;DHT22;15732;48.534;20.382;2023-03-03T11:36:38;9.40;99.90
28520;DHT22;15732;48.534;20.382;2023-03-03T11:39:25;9.40;99.90
28520;DHT22;15732;48.534;20.382;2023-03-03T11:44:50;9.50;99.90
28520;DHT22;15732;48.534;20.382;2023-03-03T11:52:42;9.50;99.90
28520;DHT22;15732;48.534;20.382;2023-03-03T11:55:34;9.60;99.90
28520;DHT22;15732;48.534;20.382;2023-03-03T12:10:00;9.50;99.90
28520;DHT22;15732;48.534;20.382;2023-03-03T12:15:44;9.40;99.90
28520;DHT22;15732;48.534;20.382;2023-03-03T12:18:28;9.40;99.90
28520;DHT22;15732;48.534;20.382;2023-03-03T12:24:30;9.40;99.90
28520;DHT22;15732;48.534;20.382;2023-03-03T12:30:01;9.50;99.90
28520;DHT22;15732;48.534;20.382;2023-03-03T12:33:13;9.50;99.90
28520;DHT22;15732;48.534;20.382;2023-03-03T12:35:42;9.50;99.90
28520;DHT22;15732;48.534;20.382;2023-03-03T12:40:50;9.60;99.90
28520;DHT22;15732;48.534;20.382;2023-03-03T12:46:39;9.70;99.90
28520;DHT22;15732;48.534;20.382;2023-03-03T12:49:12;9.70;99.90
28520;DHT22;15732;48.534;20.382;2023-03-03T12:52:03;9.80;99.90
28520;DHT22;15732;48.534;20.382;2023-03-03T13:03:10;9.90;99.90
28520;DHT22;15732;48.534;20.382;2023-03-03T13:05:56;9.90;99.90
28520;DHT22;15732;48.534;20.382;2023-03-03T13:08:59;9.90;99.90
28520;DHT22;15732;48.534;20.382;2023-03-03T13:30:48;9.90;99.90
28520;DHT22;15732;48.534;20.382;2023-03-03T13:36:09;9.90;99.90
28520;DHT22;15732;48.534;20.382;2023-03-03T13:38:45;9.90;99.90
28520;DHT22;15732;48.534;20.382;2023-03-03T13:44:24;10.00;99.90
28520;DHT22;15732;48.534;20.382;2023-03-03T13:52:50;10.00;99.90
28520;DHT22;15732;48.534;20.382;2023-03-03T14:01:11;10.00;99.90
28520;DHT22;15732;48.534;20.382;2023-03-03T14:06:40;10.00;99.90
28520;DHT22;15732;48.534;20.382;2023-03-03T14:15:23;10.10;99.90
28520;DHT22;15732;48.534;20.382;2023-03-03T14:18:21;10.10;99.90
28520;DHT22;15732;48.534;20.382;2023-03-03T14:20:52;10.10;99.90
28520;DHT22;15732;48.534;20.382;2023-03-03T14:26:09;10.10;99.90
28520;DHT22;15732;48.534;20.382;2023-03-03T14:31:24;10.10;99.90
28520;DHT22;15732;48.534;20.382;2023-03-03T14:36:31;10.10;99.90
28520;DHT22;15732;48.534;20.382;2023-03-03T14:38:58;10.10;99.90
28520;DHT22;15732;48.534;20.382;2023-03-03T14:41:41;10.10;99.90
28520;DHT22;15732;48.534;20.382;2023-03-03T14:49:35;10.10;99.90
28520;DHT22;15732;48.534;20.382;2023-03-03T14:54:48;10.10;99.90
28520;DHT22;15732;48.534;20.382;2023-03-03T14:57:17;10.10;99.90
28520;DHT22;15732;48.534;20.382;2023-03-03T14:59:56;10.10;99.90
28520;DHT22;15732;48.534;20.382;2023-03-03T15:02:30;10.10;99.90
28520;DHT22;15732;48.534;20.382;2023-03-03T15:07:39;10.10;99.90
28520;DHT22;15732;48.534;20.382;2023-03-03T15:10:07;10.10;99.90
28520;DHT22;15732;48.534;20.382;2023-03-03T15:12:38;10.10;99.90
28520;DHT22;15732;48.534;20.382;2023-03-03T15:20:12;10.10;99.90
28520;DHT22;15732;48.534;20.382;2023-03-03T15:22:51;10.10;99.90
28520;DHT22;15732;48.534;20.382;2023-03-03T15:31:07;10.10;99.90
28520;DHT22;15732;48.534;20.382;2023-03-03T15:33:50;10.10;99.90
28520;DHT22;15732;48.534;20.382;2023-03-03T15:36:45;10.00;99.90
28520;DHT22;15732;48.534;20.382;2023-03-03T15:42:46;9.90;99.90
28520;DHT22;15732;48.534;20.382;2023-03-03T15:48:06;9.90;99.90
28520;DHT22;15732;48.534;20.382;2023-03-03T15:50:57;9.80;99.90
28520;DHT22;15732;48.534;20.382;2023-03-03T16:01:33;9.60;99.90
28520;DHT22;15732;48.534;20.382;2023-03-03T16:04:15;9.60;99.90
28520;DHT22;15732;48.534;20.382;2023-03-03T16:20:34;9.20;99.90
28520;DHT22;15732;48.534;20.382;2023-03-03T16:28:28;9.00;99.90
28520;DHT22;15732;48.534;20.382;2023-03-03T16:31:16;8.90;99.90
28520;DHT22;15732;48.534;20.382;2023-03-03T16:34:18;8.80;99.90
28520;DHT22;15732;48.534;20.382;2023-03-03T16:37:21;8.80;99.90
28520;DHT22;15732;48.534;20.382;2023-03-03T16:42:32;8.70;99.90
28520;DHT22;15732;48.534;20.382;2023-03-03T16:45:26;8.70;99.90
28520;DHT22;15732;48.534;20.382;2023-03-03T16:50:48;8.60;99.90
28520;DHT22;15732;48.534;20.382;2023-03-03T16:57:03;8.40;99.90
28520;DHT22;15732;48.534;20.382;2023-03-03T17:08:34;8.10;99.90
28520;DHT22;15732;48.534;20.382;2023-03-03T17:11:35;8.00;99.90
28520;DHT22;15732;48.534;20.382;2023-03-03T17:17:23;7.80;99.90
28520;DHT22;15732;48.534;20.382;2023-03-03T17:28:33;7.60;99.90
28520;DHT22;15732;48.534;20.382;2023-03-03T17:31:20;7.50;99.90
28520;DHT22;15732;48.534;20.382;2023-03-03T17:43:08;7.40;99.90
28520;DHT22;15732;48.534;20.382;2023-03-03T17:45:46;7.30;99.90
28520;DHT22;15732;48.534;20.382;2023-03-03T17:54:35;7.00;99.90
28520;DHT22;15732;48.534;20.382;2023-03-03T18:00:12;7.00;99.90
28520;DHT22;15732;48.534;20.382;2023-03-03T18:22:45;6.60;99.90
28520;DHT22;15732;48.534;20.382;2023-03-03T18:25:15;6.50;99.90
28520;DHT22;15732;48.534;20.382;2023-03-03T18:27:44;6.50;99.90
28520;DHT22;15732;48.534;20.382;2023-03-03T18:30:17;6.40;99.90
28520;DHT22;15732;48.534;20.382;2023-03-03T18:37:51;6.40;99.90
28520;DHT22;15732;48.534;20.382;2023-03-03T18:40:28;6.30;99.90
28520;DHT22;15732;48.534;20.382;2023-03-03T18:42:56;6.30;99.90
28520;DHT22;15732;48.534;20.382;2023-03-03T18:48:11;5.90;99.90
28520;DHT22;15732;48.534;20.382;2023-03-03T18:50:45;5.90;99.90
28520;DHT22;15732;48.534;20.382;2023-03-03T18:53:29;5.90;99.90
28520;DHT22;15732;48.534;20.382;2023-03-03T18:55:57;5.90;99.90
28520;DHT22;15732;48.534;20.382;2023-03-03T19:00:59;5.90;99.90
28520;DHT22;15732;48.534;20.382;2023-03-03T19:05:58;5.80;99.90
28520;DHT22;15732;48.534;20.382;2023-03-03T19:09:05;5.80;99.90
28520;DHT22;15732;48.534;20.382;2023-03-03T19:11:52;5.80;99.90
28520;DHT22;15732;48.534;20.382;2023-03-03T19:16:52;5.80;99.90
28520;DHT22;15732;48.534;20.382;2023-03-03T19:19:57;5.80;99.90
28520;DHT22;15732;48.534;20.382;2023-03-03T19:22:28;5.70;99.90
28520;DHT22;15732;48.534;20.382;2023-03-03T19:28:31;5.60;99.90
28520;DHT22;15732;48.534;20.382;2023-03-03T19:31:38;5.60;99.90
28520;DHT22;15732;48.534;20.382;2023-03-03T19:39:40;5.40;99.90
28520;DHT22;15732;48.534;20.382;2023-03-03T20:04:32;5.40;99.90
28520;DHT22;15732;48.534;20.382;2023-03-03T20:07:11;5.30;99.90
28520;DHT22;15732;48.534;20.382;2023-03-03T20:15:39;5.20;99.90
28520;DHT22;15732;48.534;20.382;2023-03-03T20:21:38;5.10;99.90
28520;DHT22;15732;48.534;20.382;2023-03-03T20:26:56;5.00;99.90
28520;DHT22;15732;48.534;20.382;2023-03-03T20:37:17;5.10;99.90
28520;DHT22;15732;48.534;20.382;2023-03-03T20:40:09;5.10;99.90
28520;DHT22;15732;48.534;20.382;2023-03-03T20:48:24;5.20;99.90
28520;DHT22;15732;48.534;20.382;2023-03-03T20:51:07;5.10;99.90
28520;DHT22;15732;48.534;20.382;2023-03-03T20:56:28;5.10;99.90
28520;DHT22;15732;48.534;20.382;2023-03-03T21:04:35;4.70;99.90
28520;DHT22;15732;48.534;20.382;2023-03-03T21:07:04;4.60;99.90
28520;DHT22;15732;48.534;20.382;2023-03-03T21:09:37;4.50;99.90
28520;DHT22;15732;48.534;20.382;2023-03-03T21:12:25;4.30;99.90
28520;DHT22;15732;48.534;20.382;2023-03-03T21:15:27;4.20;99.90
28520;DHT22;15732;48.534;20.382;2023-03-03T21:17:55;4.20;99.90
28520;DHT22;15732;48.534;20.382;2023-03-03T21:20:30;4.30;99.90
28520;DHT22;15732;48.534;20.382;2023-03-03T21:23:01;4.40;99.90
28520;DHT22;15732;48.534;20.382;2023-03-03T21:36:14;4.50;99.90
28520;DHT22;15732;48.534;20.382;2023-03-03T21:38:45;4.40;99.90
28520;DHT22;15732;48.534;20.382;2023-03-03T21:41:17;4.10;99.90
28520;DHT22;15732;48.534;20.382;2023-03-03T21:43:52;4.00;99.90
28520;DHT22;15732;48.534;20.382;2023-03-03T21:46:23;3.90;99.90
28520;DHT22;15732;48.534;20.382;2023-03-03T21:48:51;3.90;99.90
28520;DHT22;15732;48.534;20.382;2023-03-03T21:51:18;4.00;99.90
28520;DHT22;15732;48.534;20.382;2023-03-03T21:53:50;4.10;99.90
28520;DHT22;15732;48.534;20.382;2023-03-03T21:56:21;4.10;99.90
28520;DHT22;15732;48.534;20.382;2023-03-03T21:58:52;4.10;99.90
28520;DHT22;15732;48.534;20.382;2023-03-03T22:01:24;4.00;99.90
28520;DHT22;15732;48.534;20.382;2023-03-03T22:03:51;3.90;99.90
28520;DHT22;15732;48.534;20.382;2023-03-03T22:06:19;3.80;99.90
28520;DHT22;15732;48.534;20.382;2023-03-03T22:08:46;3.70;99.90
28520;DHT22;15732;48.534;20.382;2023-03-03T22:11:17;3.60;99.90
28520;DHT22;15732;48.534;20.382;2023-03-03T22:13:45;3.50;99.90
28520;DHT22;15732;48.534;20.382;2023-03-03T22:16:16;3.40;99.90
28520;DHT22;15732;48.534;20.382;2023-03-03T22:18:43;3.30;99.90
28520;DHT22;15732;48.534;20.382;2023-03-03T22:21:10;3.40;99.90
28520;DHT22;15732;48.534;20.382;2023-03-03T22:23:38;3.40;99.90
28520;DHT22;15732;48.534;20.382;2023-03-03T22:26:04;3.40;99.90
28520;DHT22;15732;48.534;20.382;2023-03-03T22:28:36;3.40;99.90
28520;DHT22;15732;48.534;20.382;2023-03-03T22:31:04;3.50;99.90
28520;DHT22;15732;48.534;20.382;2023-03-03T22:33:31;3.40;99.90
28520;DHT22;15732;48.534;20.382;2023-03-03T22:36:02;3.50;99.90
28520;DHT22;15732;48.534;20.382;2023-03-03T22:38:30;3.50;99.90
28520;DHT22;15732;48.534;20.382;2023-03-03T22:41:04;3.50;99.90
28520;DHT22;15732;48.534;20.382;2023-03-03T22:43:32;3.40;99.90
28520;DHT22;15732;48.534;20.382;2023-03-03T22:45:59;3.40;99.90
28520;DHT22;15732;48.534;20.382;2023-03-03T22:48:27;3.20;99.90
28520;DHT22;15732;48.534;20.382;2023-03-03T22:50:55;3.10;99.90
28520;DHT22;15732;48.534;20.382;2023-03-03T22:53:23;3.00;99.90